createdAt,value
2023-05-04T00:01:58.147Z,5.90
2023-05-04T00:04:29.859Z,5.40
2023-05-04T00:06:59.021Z,5.40
2023-05-04T00:09:43.377Z,5.30
2023-05-04T00:12:19.383Z,5.40
2023-05-04T00:14:46.426Z,5.30
2023-05-04T00:17:14.003Z,5.70
2023-05-04T00:19:47.197Z,5.20
2023-05-04T00:22:17.033Z,5.30
2023-05-04T00:24:49.793Z,5.00
2023-05-04T00:27:17.809Z,5.20
2023-05-04T00:29:48.306Z,5.30
2023-05-04T00:32:18.040Z,5.20
2023-05-04T00:34:48.946Z,6.20
2023-05-04T00:37:19.296Z,6.50
2023-05-04T00:39:48.402Z,5.60
2023-05-04T00:42:16.581Z,5.80
2023-05-04T00:44:44.419Z,5.40
2023-05-04T00:47:11.562Z,5.60
2023-05-04T00:49:38.855Z,5.70
2023-05-04T00:52:06.635Z,5.10
2023-05-04T00:54:37.451Z,5.70
2023-05-04T01:00:58.542Z,5.50
2023-05-04T01:03:28.097Z,5.60
2023-05-04T01:06:11.840Z,5.50
2023-05-04T01:09:00.381Z,6.00
2023-05-04T01:12:00.030Z,5.80
2023-05-04T01:14:30.960Z,5.30
2023-05-04T01:17:00.264Z,5.40
2023-05-04T01:19:30.613Z,5.20
2023-05-04T01:21:58.623Z,5.60
2023-05-04T01:24:27.371Z,6.00
2023-05-04T01:27:21.003Z,5.80
2023-05-04T01:30:18.638Z,5.20
2023-05-04T01:32:47.196Z,5.00
2023-05-04T01:35:18.202Z,5.20
2023-05-04T01:37:48.026Z,5.60
2023-05-04T01:40:16.927Z,5.20
2023-05-04T01:42:45.009Z,5.90
2023-05-04T01:45:13.434Z,5.30
2023-05-04T01:47:42.744Z,5.80
2023-05-04T01:50:11.085Z,6.00
2023-05-04T01:52:38.399Z,6.10
2023-05-04T01:55:05.732Z,5.60
2023-05-04T01:57:33.696Z,5.90
2023-05-04T02:00:02.323Z,5.80
2023-05-04T02:02:42.916Z,5.60
2023-05-04T02:05:10.350Z,6.20
2023-05-04T02:07:37.402Z,5.90
2023-05-04T02:10:04.901Z,6.00
2023-05-04T02:12:32.508Z,6.00
2023-05-04T02:14:59.544Z,5.50
2023-05-04T02:17:26.444Z,5.00
2023-05-04T02:19:54.181Z,5.50
2023-05-04T02:22:21.176Z,5.30
2023-05-04T02:24:48.861Z,5.20
2023-05-04T02:27:17.544Z,5.90
2023-05-04T02:29:45.754Z,5.80
2023-05-04T02:32:12.945Z,5.20
2023-05-04T02:34:40.153Z,5.60
2023-05-04T02:37:07.704Z,5.80
2023-05-04T02:39:36.000Z,5.60
2023-05-04T02:42:03.084Z,4.90
2023-05-04T02:44:31.247Z,5.60
2023-05-04T02:46:58.479Z,5.00
2023-05-04T02:49:27.034Z,5.40
2023-05-04T02:51:54.626Z,5.90
2023-05-04T02:54:21.857Z,5.40
2023-05-04T02:56:48.892Z,5.10
2023-05-04T02:59:16.089Z,5.40
2023-05-04T03:01:44.946Z,5.50
2023-05-04T03:04:11.970Z,5.90
2023-05-04T03:06:42.028Z,5.60
2023-05-04T03:09:13.719Z,5.70
2023-05-04T03:11:42.300Z,5.10
2023-05-04T03:14:10.269Z,5.60
2023-05-04T03:16:39.763Z,5.50
2023-05-04T03:19:07.981Z,5.10
2023-05-04T03:21:43.961Z,5.40
2023-05-04T03:24:12.542Z,5.20
2023-05-04T03:26:41.311Z,5.50
2023-05-04T03:29:09.240Z,5.60
2023-05-04T03:31:37.060Z,5.00
2023-05-04T03:34:04.192Z,5.30
2023-05-04T03:36:32.566Z,5.70
2023-05-04T03:39:02.411Z,5.60
2023-05-04T03:41:30.144Z,5.40
2023-05-04T03:44:00.844Z,5.20
2023-05-04T03:46:31.241Z,5.50
2023-05-04T03:49:00.389Z,5.50
2023-05-04T03:51:30.931Z,5.20
2023-05-04T03:53:59.063Z,5.10
2023-05-04T03:56:26.164Z,5.50
2023-05-04T03:58:53.149Z,5.80
2023-05-04T04:01:24.038Z,5.10
2023-05-04T04:03:51.384Z,5.90
2023-05-04T04:06:19.947Z,5.60
2023-05-04T04:08:47.004Z,5.60
2023-05-04T04:11:15.314Z,5.30
2023-05-04T04:13:42.205Z,5.70
2023-05-04T04:16:09.979Z,5.50
2023-05-04T04:18:37.080Z,5.70
2023-05-04T04:21:05.635Z,6.00
2023-05-04T04:23:35.517Z,5.70
2023-05-04T04:26:06.212Z,5.90
2023-05-04T04:28:33.785Z,6.60
2023-05-04T04:31:06.322Z,6.00
2023-05-04T04:33:36.526Z,6.00
2023-05-04T04:36:04.134Z,6.30
2023-05-04T04:38:37.581Z,5.90
2023-05-04T04:41:05.458Z,5.80
2023-05-04T04:43:34.397Z,6.10
2023-05-04T04:46:03.602Z,6.20
2023-05-04T04:48:31.713Z,6.20
2023-05-04T04:50:59.616Z,6.00
2023-05-04T04:53:27.646Z,5.60
2023-05-04T04:56:02.185Z,5.90
2023-05-04T04:58:33.833Z,6.30
2023-05-04T05:01:09.266Z,6.10
2023-05-04T05:03:36.541Z,5.30
2023-05-04T05:06:05.179Z,5.80
2023-05-04T05:08:42.190Z,5.40
2023-05-04T05:17:13.407Z,5.30
2023-05-04T05:23:50.929Z,5.10
2023-05-04T05:26:17.895Z,5.50
2023-05-04T05:28:44.860Z,5.50
2023-05-04T05:31:11.908Z,5.90
2023-05-04T05:33:46.238Z,5.60
2023-05-04T05:36:14.882Z,5.60
2023-05-04T05:38:43.961Z,5.70
2023-05-04T05:41:15.200Z,6.30
2023-05-04T05:43:42.815Z,5.40
2023-05-04T05:46:12.191Z,5.80
2023-05-04T05:48:39.813Z,6.00
2023-05-04T05:51:07.147Z,5.70
2023-05-04T05:53:39.571Z,5.30
2023-05-04T05:56:08.500Z,5.70
2023-05-04T05:58:36.900Z,6.10
2023-05-04T06:01:06.630Z,6.20
2023-05-04T06:03:38.976Z,6.10
2023-05-04T06:06:07.347Z,6.00
2023-05-04T06:08:34.521Z,5.90
2023-05-04T06:11:02.637Z,6.10
2023-05-04T06:13:31.810Z,6.30
2023-05-04T06:15:59.485Z,6.10
2023-05-04T06:18:27.611Z,6.00
2023-05-04T06:21:00.439Z,6.30
2023-05-04T06:23:29.714Z,6.20
2023-05-04T06:25:57.999Z,6.30
2023-05-04T06:28:26.082Z,6.20
2023-05-04T06:30:56.539Z,6.00
2023-05-04T06:33:23.710Z,6.40
2023-05-04T06:35:57.173Z,6.30
2023-05-04T06:38:30.794Z,6.90
2023-05-04T06:40:58.411Z,5.90
2023-05-04T06:43:29.212Z,6.50
2023-05-04T06:46:01.433Z,6.00
2023-05-04T06:48:32.726Z,6.30
2023-05-04T06:51:01.481Z,6.10
2023-05-04T06:53:31.636Z,6.30
2023-05-04T06:55:58.904Z,6.60
2023-05-04T06:58:26.225Z,6.10
2023-05-04T07:00:53.283Z,6.50
2023-05-04T07:03:21.949Z,6.10
2023-05-04T07:05:53.554Z,6.50
2023-05-04T07:08:29.311Z,6.50
2023-05-04T07:10:57.883Z,6.00
2023-05-04T07:13:29.113Z,6.00
2023-05-04T07:15:57.021Z,5.30
2023-05-04T07:18:24.352Z,6.40
2023-05-04T07:21:26.751Z,6.90
2023-05-04T07:23:57.251Z,6.50
2023-05-04T07:26:26.832Z,6.30
2023-05-04T07:28:54.874Z,6.70
2023-05-04T07:31:22.561Z,6.20
2023-05-04T07:33:52.363Z,5.70
2023-05-04T07:36:20.879Z,6.10
2023-05-04T07:39:03.806Z,6.40
2023-05-04T07:41:40.889Z,6.20
2023-05-04T07:46:38.026Z,6.30
2023-05-04T07:49:06.185Z,6.00
2023-05-04T07:51:33.325Z,6.50
2023-05-04T07:54:01.136Z,6.40
2023-05-04T07:56:27.977Z,6.10
2023-05-04T07:58:55.597Z,5.80
2023-05-04T08:01:22.393Z,6.20
2023-05-04T08:03:55.047Z,7.10
2023-05-04T08:06:27.004Z,6.10
2023-05-04T08:11:41.921Z,7.00
2023-05-04T08:14:08.918Z,6.80
2023-05-04T08:16:39.345Z,6.70
2023-05-04T08:19:06.567Z,6.40
2023-05-04T08:21:33.510Z,6.30
2023-05-04T08:24:03.138Z,6.10
2023-05-04T08:26:32.087Z,6.40
2023-05-04T08:31:49.240Z,7.70
2023-05-04T08:34:17.897Z,7.00
2023-05-04T08:36:50.423Z,6.60
2023-05-04T08:39:19.327Z,6.70
2023-05-04T08:41:50.310Z,6.30
2023-05-04T08:44:21.457Z,7.20
2023-05-04T08:46:54.431Z,7.70
2023-05-04T08:49:27.497Z,7.30
2023-05-04T08:51:59.511Z,7.50
2023-05-04T08:54:32.170Z,6.10
2023-05-04T08:57:11.297Z,6.10
2023-05-04T09:00:11.607Z,5.80
2023-05-04T09:02:49.863Z,5.90
2023-05-04T09:05:17.804Z,5.90
2023-05-04T09:07:48.325Z,4.90
2023-05-04T09:10:15.581Z,5.70
2023-05-04T09:12:44.815Z,5.40
2023-05-04T09:15:22.426Z,5.30
2023-05-04T09:18:13.712Z,5.00
2023-05-04T09:20:46.640Z,4.80
2023-05-04T09:23:17.378Z,5.00
2023-05-04T09:25:48.286Z,5.20
2023-05-04T09:28:19.442Z,5.60
2023-05-04T09:31:08.095Z,5.40
2023-05-04T09:33:43.531Z,5.00
2023-05-04T09:36:26.872Z,4.90
2023-05-04T09:38:54.816Z,5.20
2023-05-04T09:41:32.032Z,5.10
2023-05-04T09:43:59.345Z,4.70
2023-05-04T09:46:27.777Z,5.00
2023-05-04T09:48:56.508Z,7.60
2023-05-04T09:51:25.917Z,5.20
2023-05-04T09:53:53.837Z,5.30
2023-05-04T09:56:47.320Z,4.70
2023-05-04T09:59:14.539Z,5.30
2023-05-04T10:01:44.967Z,4.60
2023-05-04T10:04:12.615Z,5.20
2023-05-04T10:06:42.758Z,5.60
2023-05-04T10:09:10.130Z,5.00
2023-05-04T10:11:41.947Z,4.80
2023-05-04T10:14:13.085Z,5.70
2023-05-04T10:20:32.533Z,4.70
2023-05-04T10:23:21.391Z,4.40
2023-05-04T10:26:44.853Z,4.30
2023-05-04T10:29:23.708Z,4.90
2023-05-04T10:31:51.643Z,4.40
2023-05-04T10:34:36.293Z,7.30
2023-05-04T10:37:04.349Z,5.10
2023-05-04T10:39:33.763Z,4.90
2023-05-04T10:42:07.504Z,4.30
2023-05-04T10:44:36.929Z,4.50
2023-05-04T10:47:09.913Z,3.90
2023-05-04T10:49:38.954Z,3.70
2023-05-04T10:52:17.842Z,3.90
2023-05-04T10:54:46.505Z,3.80
2023-05-04T10:57:17.036Z,3.20
2023-05-04T10:59:57.602Z,3.80
2023-05-04T11:02:26.368Z,4.00
2023-05-04T11:05:09.805Z,3.80
2023-05-04T11:07:37.998Z,3.40
2023-05-04T11:10:40.283Z,3.80
2023-05-04T11:13:12.026Z,3.70
2023-05-04T11:15:46.586Z,3.40
2023-05-04T11:18:13.803Z,3.60
2023-05-04T11:20:41.977Z,4.50
2023-05-04T11:23:12.141Z,4.40
2023-05-04T11:25:39.132Z,4.10
2023-05-04T11:28:08.623Z,3.90
2023-05-04T11:30:41.090Z,3.70
2023-05-04T11:35:42.977Z,3.30
2023-05-04T11:38:10.232Z,3.40
2023-05-04T11:40:40.643Z,3.70
2023-05-04T11:43:10.323Z,2.90
2023-05-04T11:48:21.625Z,2.80
2023-05-04T11:50:49.877Z,2.70
2023-05-04T11:56:14.991Z,2.60
2023-05-04T11:58:58.252Z,2.40
2023-05-04T12:01:26.495Z,2.50
2023-05-04T12:03:54.568Z,2.60
2023-05-04T12:06:32.143Z,2.30
2023-05-04T12:09:06.058Z,2.20
2023-05-04T12:11:34.490Z,2.40
2023-05-04T12:14:05.306Z,1.60
2023-05-04T12:16:35.508Z,1.80
2023-05-04T12:19:05.045Z,1.60
2023-05-04T12:24:16.801Z,1.10
2023-05-04T12:26:43.591Z,1.00
2023-05-04T12:29:10.554Z,1.00
2023-05-04T12:31:37.412Z,1.00
2023-05-04T12:34:04.329Z,1.30
2023-05-04T12:36:32.121Z,1.00
2023-05-04T12:38:59.206Z,1.30
2023-05-04T12:41:28.716Z,1.70
2023-05-04T12:44:07.890Z,1.40
2023-05-04T12:46:35.748Z,2.20
2023-05-04T12:49:03.225Z,1.80
2023-05-04T12:51:34.007Z,1.40
2023-05-04T12:54:00.760Z,1.20
2023-05-04T12:56:27.899Z,1.30
2023-05-04T12:58:56.400Z,1.60
2023-05-04T13:01:23.473Z,1.50
2023-05-04T13:03:51.336Z,1.30
2023-05-04T13:06:19.368Z,1.70
2023-05-04T13:08:51.695Z,1.40
2023-05-04T13:11:21.130Z,1.20
2023-05-04T13:13:51.566Z,1.30
2023-05-04T13:16:18.815Z,1.10
2023-05-04T13:18:45.691Z,1.30
2023-05-04T13:21:13.332Z,1.30
2023-05-04T13:23:44.417Z,1.20
2023-05-04T13:26:12.043Z,1.20
2023-05-04T13:28:39.479Z,1.10
2023-05-04T13:31:08.518Z,1.20
2023-05-04T13:33:39.190Z,1.60
2023-05-04T13:36:06.502Z,1.20
2023-05-04T13:38:33.781Z,1.20
2023-05-04T13:41:02.320Z,1.40
2023-05-04T13:43:30.318Z,1.10
2023-05-04T13:46:03.648Z,1.20
2023-05-04T13:48:33.913Z,1.00
2023-05-04T13:51:03.242Z,1.80
2023-05-04T13:53:32.427Z,1.40
2023-05-04T13:56:02.471Z,1.50
2023-05-04T13:58:30.123Z,1.70
2023-05-04T14:01:00.623Z,1.50
2023-05-04T14:03:32.493Z,2.40
2023-05-04T14:06:00.571Z,2.50
2023-05-04T14:08:29.340Z,3.30
2023-05-04T14:10:57.225Z,4.10
2023-05-04T14:13:24.373Z,4.40
2023-05-04T14:15:53.147Z,4.90
2023-05-04T14:18:20.576Z,4.70
2023-05-04T14:20:49.707Z,5.40
2023-05-04T14:23:16.963Z,5.20
2023-05-04T14:25:51.886Z,5.30
2023-05-04T14:28:18.973Z,5.50
2023-05-04T14:30:45.889Z,5.20
2023-05-04T14:33:15.756Z,4.50
2023-05-04T14:35:47.861Z,4.80
2023-05-04T14:38:15.488Z,5.50
2023-05-04T14:40:42.510Z,5.60
2023-05-04T14:43:09.580Z,4.80
2023-05-04T14:45:37.188Z,5.00
2023-05-04T14:48:06.549Z,5.10
2023-05-04T14:50:34.964Z,5.40
2023-05-04T14:53:02.545Z,5.60
2023-05-04T14:55:37.126Z,5.00
2023-05-04T14:58:04.262Z,4.90
2023-05-04T15:00:37.709Z,5.20
2023-05-04T15:03:05.088Z,5.30
2023-05-04T15:05:35.312Z,4.70
2023-05-04T15:08:06.171Z,4.70
2023-05-04T15:10:36.888Z,4.40
2023-05-04T15:13:05.874Z,3.90
2023-05-04T15:15:33.075Z,4.10
2023-05-04T15:18:16.944Z,4.10
2023-05-04T15:20:46.866Z,4.30
2023-05-04T15:26:10.125Z,4.00
2023-05-04T15:28:45.147Z,4.30
2023-05-04T15:31:20.759Z,3.70
2023-05-04T15:33:50.016Z,4.10
2023-05-04T15:36:23.169Z,3.60
2023-05-04T15:38:52.582Z,4.00
2023-05-04T15:41:20.147Z,4.20
2023-05-04T15:44:15.472Z,3.60
2023-05-04T15:46:47.058Z,3.80
2023-05-04T15:49:16.217Z,4.50
2023-05-04T15:51:47.563Z,4.20
2023-05-04T15:54:18.252Z,4.10
2023-05-04T15:56:49.722Z,4.30
2023-05-04T15:59:18.298Z,4.40
2023-05-04T16:01:46.844Z,4.20
2023-05-04T16:04:15.514Z,4.50
2023-05-04T16:06:43.223Z,4.60
2023-05-04T16:09:13.013Z,5.10
2023-05-04T16:11:40.163Z,5.40
2023-05-04T16:14:15.491Z,5.00
2023-05-04T16:16:53.415Z,5.00
2023-05-04T16:24:53.828Z,4.60
2023-05-04T16:27:23.810Z,4.60
2023-05-04T16:29:51.152Z,4.70
2023-05-04T16:32:23.049Z,4.40
2023-05-04T16:37:20.268Z,4.20
2023-05-04T16:39:53.439Z,3.80
2023-05-04T16:42:29.092Z,4.00
2023-05-04T16:45:01.923Z,4.10
2023-05-04T16:47:29.663Z,3.70
2023-05-04T16:49:56.735Z,3.50
2023-05-04T16:52:23.901Z,3.50
2023-05-04T16:54:50.891Z,3.50
2023-05-04T16:57:17.817Z,3.50
2023-05-04T16:59:45.813Z,3.60
2023-05-04T17:02:15.125Z,3.10
2023-05-04T17:04:43.477Z,3.20
2023-05-04T17:07:11.323Z,3.40
2023-05-04T17:09:39.819Z,3.00
2023-05-04T17:12:07.214Z,3.50
2023-05-04T17:14:36.378Z,3.10
2023-05-04T17:17:12.101Z,2.60
2023-05-04T17:19:43.605Z,3.00
2023-05-04T17:22:44.436Z,2.80
2023-05-04T17:25:12.615Z,2.60
2023-05-04T17:27:40.916Z,2.50
2023-05-04T17:30:13.142Z,2.60
2023-05-04T17:40:38.685Z,2.40
2023-05-04T17:43:05.616Z,2.60
2023-05-04T17:45:34.513Z,2.50
2023-05-04T19:14:49.328Z,1.80
2023-05-04T19:17:17.824Z,2.40
2023-05-04T19:19:44.645Z,2.20
2023-05-04T19:22:12.747Z,2.40
2023-05-04T19:24:39.650Z,2.50
2023-05-04T19:27:08.917Z,2.50
2023-05-04T19:29:38.607Z,3.20
2023-05-04T19:32:19.850Z,2.80
2023-05-04T19:34:47.823Z,2.50
2023-05-04T19:37:14.870Z,2.50
2023-05-04T19:39:41.799Z,2.20
2023-05-04T19:42:08.687Z,2.70
2023-05-04T19:44:35.555Z,2.40
2023-05-04T19:47:03.291Z,2.40
2023-05-04T19:49:31.355Z,2.70
2023-05-04T19:51:58.173Z,2.30
2023-05-04T19:54:25.015Z,2.50
2023-05-04T19:56:53.132Z,2.50
2023-05-04T19:59:19.939Z,2.30
2023-05-04T20:01:46.840Z,2.70
2023-05-04T20:04:13.740Z,2.30
2023-05-04T20:06:40.732Z,2.80
2023-05-04T20:09:07.677Z,2.50
2023-05-04T20:11:35.581Z,2.50
2023-05-04T20:14:02.433Z,2.60
2023-05-04T20:16:31.626Z,2.90
2023-05-04T20:18:59.254Z,2.50
2023-05-04T20:21:27.726Z,2.90
2023-05-04T20:23:54.818Z,2.50
2023-05-04T20:26:22.973Z,2.80
2023-05-04T20:28:50.863Z,2.80
2023-05-04T20:31:19.289Z,2.60
2023-05-04T20:33:46.131Z,2.30
2023-05-04T20:36:12.977Z,2.50
2023-05-04T20:38:39.806Z,2.60
2023-05-04T20:41:08.970Z,2.10
2023-05-04T20:46:18.942Z,2.20
2023-05-04T20:48:46.021Z,2.40
2023-05-04T20:51:15.075Z,2.40
2023-05-04T20:53:42.554Z,2.40
2023-05-04T20:56:09.485Z,2.00
2023-05-04T20:58:39.758Z,2.40
2023-05-04T21:01:07.624Z,2.60
2023-05-04T21:03:36.163Z,2.40
2023-05-04T21:06:04.633Z,2.30
2023-05-04T21:08:32.350Z,2.20
2023-05-04T21:10:59.637Z,2.50
2023-05-04T21:13:26.663Z,2.40
2023-05-04T21:15:53.690Z,2.60
2023-05-04T21:18:20.980Z,2.60
2023-05-04T21:20:48.562Z,2.30
2023-05-04T21:23:16.327Z,2.60
2023-05-04T21:25:45.089Z,2.40
2023-05-04T21:28:12.041Z,2.80
2023-05-04T21:30:42.091Z,2.20
2023-05-04T21:33:09.519Z,2.50
2023-05-04T21:35:36.419Z,2.60
2023-05-04T21:38:05.895Z,2.10
2023-05-04T21:40:33.110Z,2.40
2023-05-04T21:43:01.515Z,2.40
2023-05-04T21:45:32.065Z,2.20
2023-05-04T21:47:59.580Z,2.60
2023-05-04T21:50:29.005Z,2.80
2023-05-04T21:52:55.855Z,2.50
2023-05-04T21:55:22.824Z,3.40
2023-05-04T21:57:49.975Z,2.60
2023-05-04T22:00:19.410Z,2.50
2023-05-04T22:02:51.565Z,2.30
2023-05-04T22:05:22.780Z,2.30
2023-05-04T22:08:10.809Z,2.20
2023-05-04T22:17:08.526Z,2.80
2023-05-04T22:19:43.030Z,3.00
2023-05-04T22:22:12.505Z,3.90
2023-05-04T22:27:32.839Z,3.30
2023-05-04T22:30:00.827Z,2.50
2023-05-04T22:32:28.032Z,2.40
2023-05-04T22:34:55.758Z,2.40
2023-05-04T22:37:24.113Z,2.50
2023-05-04T22:39:53.703Z,2.30
2023-05-04T22:42:21.419Z,2.10
2023-05-04T22:44:48.907Z,2.40
2023-05-04T22:47:17.410Z,2.60
2023-05-04T22:52:32.019Z,2.60
2023-05-04T22:55:00.011Z,2.10
2023-05-04T22:57:32.162Z,2.50
2023-05-04T22:59:59.776Z,2.90
2023-05-04T23:02:28.178Z,2.70
2023-05-04T23:04:56.925Z,2.70
2023-05-04T23:07:36.193Z,2.60
2023-05-04T23:10:04.368Z,2.80
2023-05-04T23:12:37.574Z,2.90
2023-05-04T23:15:24.392Z,2.60
2023-05-04T23:17:59.621Z,2.80
2023-05-04T23:27:04.111Z,2.70
2023-05-04T23:29:35.179Z,3.00
2023-05-04T23:32:06.568Z,2.40
2023-05-04T23:34:43.097Z,2.60
2023-05-04T23:37:16.222Z,2.40
2023-05-04T23:39:53.481Z,2.60
2023-05-04T23:42:33.809Z,2.70
2023-05-04T23:45:04.690Z,2.70
2023-05-04T23:47:35.993Z,2.40
2023-05-04T23:52:46.026Z,2.80
2023-05-04T23:55:17.018Z,2.70
2023-05-04T23:57:59.119Z,2.60
